createdAt,value
2018-06-15T00:01:57.105Z,29.57
2018-06-15T00:04:31.488Z,32.50
2018-06-15T00:07:06.368Z,32.97
2018-06-15T00:09:41.311Z,33.40
2018-06-15T00:12:15.880Z,33.40
2018-06-15T00:14:50.592Z,33.17
2018-06-15T00:17:24.832Z,33.00
2018-06-15T00:19:59.953Z,33.57
2018-06-15T00:22:34.879Z,35.00
2018-06-15T00:25:09.913Z,35.10
2018-06-15T00:27:44.552Z,34.67
2018-06-15T00:30:19.544Z,34.03
2018-06-15T00:32:54.260Z,35.17
2018-06-15T00:35:29.584Z,35.00
2018-06-15T00:38:04.160Z,35.37
2018-06-15T00:40:39.244Z,33.73
2018-06-15T00:43:13.992Z,35.23
2018-06-15T00:45:48.981Z,34.07
2018-06-15T00:48:24.502Z,34.87
2018-06-15T00:50:59.664Z,35.33
2018-06-15T00:53:34.877Z,36.97
2018-06-15T00:56:09.697Z,35.60
2018-06-15T00:58:45.114Z,35.20
2018-06-15T01:01:20.212Z,36.73
2018-06-15T01:03:56.221Z,38.10
2018-06-15T01:06:31.460Z,33.27
2018-06-15T01:09:07.773Z,36.03
2018-06-15T01:11:42.256Z,34.60
2018-06-15T01:14:17.464Z,37.50
2018-06-15T01:16:52.270Z,34.20
2018-06-15T01:19:27.593Z,36.17
2018-06-15T01:22:02.217Z,32.90
2018-06-15T01:24:36.833Z,35.43
2018-06-15T01:27:11.994Z,27.20
2018-06-15T01:29:46.969Z,34.27
2018-06-15T01:32:21.447Z,34.27
2018-06-15T01:34:56.688Z,34.17
2018-06-15T01:37:31.203Z,34.47
2018-06-15T01:40:06.293Z,32.70
2018-06-15T01:42:40.753Z,35.00
2018-06-15T01:45:15.837Z,36.30
2018-06-15T01:47:51.110Z,34.00
2018-06-15T01:50:25.908Z,34.57
2018-06-15T01:53:01.226Z,34.33
2018-06-15T01:55:36.504Z,36.23
2018-06-15T01:58:11.407Z,33.37
2018-06-15T02:00:46.768Z,34.73
2018-06-15T02:03:22.068Z,32.67
2018-06-15T02:05:56.893Z,35.67
2018-06-15T02:08:31.665Z,34.13
2018-06-15T02:11:07.015Z,34.33
2018-06-15T02:13:41.905Z,33.20
2018-06-15T02:16:17.151Z,35.17
2018-06-15T02:18:52.445Z,33.53
2018-06-15T02:21:28.513Z,33.50
2018-06-15T02:24:03.052Z,34.90
2018-06-15T02:26:37.917Z,33.63
2018-06-15T02:29:12.977Z,34.43
2018-06-15T02:31:47.792Z,34.37
2018-06-15T02:34:22.320Z,34.37
2018-06-15T02:36:57.112Z,33.17
2018-06-15T02:39:32.420Z,35.83
2018-06-15T02:42:07.742Z,32.73
2018-06-15T02:44:42.758Z,35.40
2018-06-15T02:47:17.398Z,36.13
2018-06-15T02:49:52.280Z,30.90
2018-06-15T02:52:27.003Z,33.00
2018-06-15T02:55:02.317Z,32.50
2018-06-15T02:57:36.965Z,34.20
2018-06-15T03:00:11.509Z,29.53
2018-06-15T03:02:46.467Z,32.97
2018-06-15T03:05:21.401Z,31.97
2018-06-15T03:07:56.172Z,32.70
2018-06-15T03:10:31.168Z,32.53
2018-06-15T03:13:05.996Z,33.37
2018-06-15T03:15:40.896Z,34.00
2018-06-15T03:18:15.657Z,30.07
2018-06-15T03:20:50.220Z,32.20
2018-06-15T03:23:25.777Z,31.50
2018-06-15T03:26:00.541Z,32.67
2018-06-15T03:28:35.317Z,32.00
2018-06-15T03:31:10.330Z,33.30
2018-06-15T03:33:45.145Z,34.73
2018-06-15T03:36:19.996Z,33.87
2018-06-15T03:38:55.018Z,34.90
2018-06-15T03:41:29.965Z,33.77
2018-06-15T03:44:05.301Z,34.57
2018-06-15T03:46:40.232Z,33.40
2018-06-15T03:49:15.387Z,32.87
2018-06-15T03:51:50.838Z,32.20
2018-06-15T03:54:25.392Z,32.27
2018-06-15T03:57:00.584Z,28.90
2018-06-15T03:59:35.247Z,29.07
2018-06-15T04:02:10.155Z,29.87
2018-06-15T04:04:45.288Z,31.90
2018-06-15T04:07:20.567Z,32.00
2018-06-15T04:09:55.639Z,27.13
2018-06-15T04:12:30.802Z,29.80
2018-06-15T04:15:05.657Z,33.70
2018-06-15T04:17:40.958Z,33.77
2018-06-15T04:20:15.161Z,27.23
2018-06-15T04:22:50.057Z,30.30
2018-06-15T04:25:25.163Z,29.90
2018-06-15T04:28:00.400Z,31.67
2018-06-15T04:30:35.212Z,31.00
2018-06-15T04:33:10.376Z,30.00
2018-06-15T04:35:45.401Z,34.23
2018-06-15T04:38:20.253Z,31.97
2018-06-15T04:40:55.172Z,25.07
2018-06-15T04:43:29.705Z,28.90
2018-06-15T04:46:04.707Z,32.80
2018-06-15T04:48:39.172Z,30.33
2018-06-15T04:51:14.063Z,32.40
2018-06-15T04:53:48.812Z,29.80
2018-06-15T04:56:24.313Z,32.47
2018-06-15T04:59:00.152Z,28.27
2018-06-15T05:01:34.798Z,33.90
2018-06-15T05:04:09.797Z,30.00
2018-06-15T05:06:44.406Z,32.47
2018-06-15T05:09:19.429Z,32.57
2018-06-15T05:11:54.055Z,31.57
2018-06-15T05:14:29.001Z,32.60
2018-06-15T05:17:03.240Z,25.50
2018-06-15T05:19:38.393Z,32.70
2018-06-15T05:22:13.065Z,33.07
2018-06-15T05:24:48.005Z,33.87
2018-06-15T05:27:23.137Z,27.30
2018-06-15T05:29:57.688Z,32.30
2018-06-15T05:32:33.241Z,31.87
2018-06-15T05:35:08.533Z,30.00
2018-06-15T05:37:42.881Z,29.77
2018-06-15T05:40:18.434Z,31.50
2018-06-15T05:42:53.357Z,30.27
2018-06-15T05:45:28.344Z,29.20
2018-06-15T05:48:02.889Z,27.10
2018-06-15T05:50:38.157Z,31.20
2018-06-15T05:53:13.369Z,26.47
2018-06-15T05:55:48.321Z,28.73
2018-06-15T05:58:23.192Z,29.33
2018-06-15T06:00:58.242Z,29.77
2018-06-15T06:03:32.763Z,26.83
2018-06-15T06:06:08.017Z,29.17
2018-06-15T06:08:46.217Z,27.90
2018-06-15T06:11:20.751Z,28.43
2018-06-15T06:13:55.629Z,26.33
2018-06-15T06:16:30.169Z,27.13
2018-06-15T06:19:05.624Z,25.40
2018-06-15T06:21:40.144Z,26.30
2018-06-15T06:24:14.708Z,27.23
2018-06-15T06:26:49.465Z,26.70
2018-06-15T06:29:24.548Z,27.40
2018-06-15T06:31:59.509Z,28.00
2018-06-15T06:34:33.966Z,27.40
2018-06-15T06:37:09.199Z,27.60
2018-06-15T06:39:44.363Z,25.63
2018-06-15T06:42:19.409Z,25.80
2018-06-15T06:44:54.412Z,28.10
2018-06-15T06:47:29.274Z,25.30
2018-06-15T06:50:04.161Z,25.03
2018-06-15T06:52:38.949Z,24.97
2018-06-15T06:55:14.141Z,22.10
2018-06-15T06:57:49.644Z,24.53
2018-06-15T07:00:24.873Z,25.73
2018-06-15T07:02:59.813Z,24.53
2018-06-15T07:05:34.879Z,24.50
2018-06-15T07:08:09.566Z,24.30
2018-06-15T07:10:44.744Z,25.40
2018-06-15T07:13:19.280Z,22.10
2018-06-15T07:15:54.007Z,23.50
2018-06-15T07:18:28.701Z,22.40
2018-06-15T07:21:03.794Z,23.20
2018-06-15T07:23:38.245Z,24.40
2018-06-15T07:26:13.414Z,23.60
2018-06-15T07:28:48.016Z,22.27
2018-06-15T07:31:22.846Z,24.40
2018-06-15T07:33:57.882Z,24.87
2018-06-15T07:36:32.596Z,24.10
2018-06-15T07:39:08.624Z,23.60
2018-06-15T07:41:43.454Z,25.00
2018-06-15T07:44:18.017Z,25.93
2018-06-15T07:46:53.077Z,22.63
2018-06-15T07:49:28.009Z,24.50
2018-06-15T07:52:03.329Z,22.20
2018-06-15T07:54:38.287Z,22.40
2018-06-15T07:57:13.054Z,22.00
2018-06-15T07:59:47.478Z,21.53
2018-06-15T08:02:22.257Z,21.70
2018-06-15T08:04:57.377Z,19.67
2018-06-15T08:07:32.323Z,18.40
2018-06-15T08:10:07.572Z,18.20
2018-06-15T08:12:42.653Z,19.57
2018-06-15T08:15:17.650Z,18.97
2018-06-15T08:17:52.582Z,17.83
2018-06-15T08:20:27.777Z,17.17
2018-06-15T08:23:02.246Z,15.30
2018-06-15T08:25:37.069Z,14.47
2018-06-15T08:28:12.013Z,16.83
2018-06-15T08:30:46.754Z,16.70
2018-06-15T08:33:21.792Z,16.90
2018-06-15T08:35:57.058Z,16.37
2018-06-15T08:38:31.864Z,18.00
2018-06-15T08:41:06.649Z,18.10
2018-06-15T08:43:41.408Z,16.30
2018-06-15T08:46:16.749Z,16.10
2018-06-15T08:48:51.920Z,15.90
2018-06-15T08:51:27.057Z,15.80
2018-06-15T08:54:01.930Z,15.63
2018-06-15T08:56:36.980Z,15.83
2018-06-15T08:59:11.840Z,17.03
2018-06-15T09:01:46.866Z,16.87
2018-06-15T09:04:21.511Z,16.00
2018-06-15T09:06:56.600Z,16.70
2018-06-15T09:09:31.880Z,17.00
2018-06-15T09:12:06.957Z,15.37
2018-06-15T09:14:42.210Z,16.40
2018-06-15T09:17:17.405Z,15.90
2018-06-15T09:19:52.621Z,15.57
2018-06-15T09:22:27.292Z,14.70
2018-06-15T09:25:02.609Z,13.87
2018-06-15T09:27:37.297Z,13.77
2018-06-15T09:30:12.173Z,14.53
2018-06-15T09:32:46.713Z,15.33
2018-06-15T09:35:21.735Z,14.10
2018-06-15T09:37:56.193Z,14.70
2018-06-15T09:40:31.249Z,15.77
2018-06-15T09:43:06.045Z,13.20
2018-06-15T09:45:40.450Z,12.33
2018-06-15T09:48:15.401Z,10.83
2018-06-15T09:50:50.684Z,14.30
2018-06-15T09:53:25.421Z,14.90
2018-06-15T09:56:00.375Z,13.90
2018-06-15T09:58:35.153Z,11.83
2018-06-15T10:01:11.192Z,11.50
2018-06-15T10:03:46.034Z,11.57
2018-06-15T10:06:20.729Z,12.70
2018-06-15T10:08:55.765Z,11.17
2018-06-15T10:11:30.927Z,10.23
2018-06-15T10:14:05.841Z,10.83
2018-06-15T10:16:41.576Z,10.30
2018-06-15T10:19:17.197Z,11.40
2018-06-15T10:21:51.788Z,11.20
2018-06-15T10:24:27.136Z,12.47
2018-06-15T10:27:01.807Z,13.30
2018-06-15T10:29:36.654Z,12.60
2018-06-15T10:32:11.896Z,10.57
2018-06-15T10:34:46.929Z,8.73
2018-06-15T10:37:21.954Z,10.60
2018-06-15T10:39:57.338Z,11.90
2018-06-15T10:42:31.824Z,10.53
2018-06-15T10:45:07.009Z,9.23
2018-06-15T10:47:41.974Z,8.70
2018-06-15T10:50:17.253Z,8.17
2018-06-15T10:52:51.843Z,9.17
2018-06-15T10:55:26.595Z,9.87
2018-06-15T10:58:01.485Z,8.70
2018-06-15T11:00:36.422Z,9.67
2018-06-15T11:03:11.076Z,9.80
2018-06-15T11:05:46.293Z,11.40
2018-06-15T11:08:21.216Z,9.33
2018-06-15T11:10:56.215Z,9.13
2018-06-15T11:13:31.022Z,9.13
2018-06-15T11:16:06.449Z,9.80
2018-06-15T11:18:41.117Z,10.43
2018-06-15T11:21:16.181Z,9.50
2018-06-15T11:23:51.266Z,10.33
2018-06-15T11:26:26.393Z,8.17
2018-06-15T11:29:01.325Z,8.83
2018-06-15T11:31:35.912Z,7.93
2018-06-15T11:34:10.939Z,8.47
2018-06-15T11:36:46.164Z,6.90
2018-06-15T11:39:20.765Z,5.90
2018-06-15T11:41:55.404Z,6.57
2018-06-15T11:44:30.785Z,7.27
2018-06-15T11:47:05.577Z,5.50
2018-06-15T11:49:40.937Z,5.50
2018-06-15T11:52:16.348Z,5.60
2018-06-15T11:54:51.371Z,5.20
2018-06-15T11:57:26.402Z,5.30
2018-06-15T12:00:01.402Z,4.40
2018-06-15T12:02:36.275Z,6.00
2018-06-15T12:05:11.070Z,6.83
2018-06-15T12:07:45.764Z,6.50
2018-06-15T12:10:21.177Z,6.00
2018-06-15T12:12:55.858Z,5.67
2018-06-15T12:15:31.002Z,6.80
2018-06-15T12:18:06.502Z,6.73
2018-06-15T12:20:41.689Z,6.97
2018-06-15T12:23:16.700Z,6.00
2018-06-15T12:25:51.386Z,6.70
2018-06-15T12:28:25.609Z,7.40
2018-06-15T12:31:00.268Z,5.90
2018-06-15T12:33:35.316Z,6.70
2018-06-15T12:36:10.629Z,5.93
2018-06-15T12:38:45.289Z,6.90
2018-06-15T12:41:19.943Z,6.90
2018-06-15T12:43:54.825Z,6.33
2018-06-15T12:46:29.852Z,6.70
2018-06-15T12:49:05.517Z,6.30
2018-06-15T12:51:40.476Z,6.23
2018-06-15T12:54:15.176Z,6.53
2018-06-15T12:56:49.900Z,6.50
2018-06-15T12:59:25.053Z,6.20
2018-06-15T13:01:59.669Z,6.17
2018-06-15T13:04:34.885Z,6.50
2018-06-15T13:07:10.164Z,5.90
2018-06-15T13:09:44.669Z,6.07
2018-06-15T13:12:19.746Z,6.77
2018-06-15T13:14:54.189Z,5.70
2018-06-15T13:17:29.550Z,6.77
2018-06-15T13:20:04.036Z,5.83
2018-06-15T13:22:39.371Z,6.60
2018-06-15T13:25:14.121Z,4.97
2018-06-15T13:27:49.140Z,5.83
2018-06-15T13:30:24.801Z,7.33
2018-06-15T13:32:59.220Z,5.13
2018-06-15T13:35:34.333Z,6.00
2018-06-15T13:38:09.373Z,5.07
2018-06-15T13:40:44.047Z,6.03
2018-06-15T13:43:19.407Z,6.20
2018-06-15T13:45:54.165Z,6.77
2018-06-15T13:48:29.437Z,6.53
2018-06-15T13:51:04.768Z,7.40
2018-06-15T13:53:41.990Z,6.90
2018-06-15T13:56:17.540Z,6.63
2018-06-15T13:58:52.445Z,6.77
2018-06-15T14:01:27.316Z,6.80
2018-06-15T14:04:02.677Z,6.93
2018-06-15T14:06:37.528Z,7.60
2018-06-15T14:09:12.622Z,7.57
2018-06-15T14:11:47.462Z,5.87
2018-06-15T14:14:22.260Z,5.97
2018-06-15T14:16:57.481Z,7.30
2018-06-15T14:19:32.378Z,7.43
2018-06-15T14:22:07.216Z,6.93
2018-06-15T14:24:42.344Z,6.40
2018-06-15T14:27:16.769Z,6.57
2018-06-15T14:29:51.740Z,5.67
2018-06-15T14:32:26.678Z,6.50
2018-06-15T14:35:02.062Z,7.07
2018-06-15T14:37:37.314Z,5.97
2018-06-15T14:40:12.265Z,5.43
2018-06-15T14:42:46.541Z,6.07
2018-06-15T14:45:21.477Z,6.20
2018-06-15T14:47:56.510Z,7.47
2018-06-15T14:50:31.640Z,7.00
2018-06-15T14:53:06.632Z,7.07
2018-06-15T14:55:42.263Z,7.57
2018-06-15T14:58:16.482Z,7.00
2018-06-15T15:00:51.485Z,7.10
2018-06-15T15:03:26.050Z,7.10
2018-06-15T15:06:00.851Z,5.80
2018-06-15T15:08:35.914Z,6.40
2018-06-15T15:11:10.710Z,6.83
2018-06-15T15:13:46.212Z,7.60
2018-06-15T15:16:21.209Z,5.80
2018-06-15T15:18:56.259Z,6.40
2018-06-15T15:21:31.705Z,6.30
2018-06-15T15:24:06.881Z,6.30
2018-06-15T15:26:41.988Z,6.17
2018-06-15T15:29:16.883Z,6.73
2018-06-15T15:31:51.741Z,6.10
2018-06-15T15:34:26.925Z,7.27
2018-06-15T15:37:01.839Z,6.83
2018-06-15T15:39:36.954Z,6.60
2018-06-15T15:42:11.939Z,7.00
2018-06-15T15:44:47.041Z,7.23
2018-06-15T15:47:21.422Z,6.90
2018-06-15T15:49:56.443Z,7.23
2018-06-15T15:52:30.888Z,7.63
2018-06-15T15:55:05.813Z,6.03
2018-06-15T15:57:41.781Z,6.80
2018-06-15T16:00:16.217Z,7.17
2018-06-15T16:02:51.700Z,6.50
2018-06-15T16:05:26.862Z,6.57
2018-06-15T16:08:01.414Z,6.77
2018-06-15T16:10:36.239Z,6.87
2018-06-15T16:13:11.827Z,6.67
2018-06-15T16:15:46.425Z,6.70
2018-06-15T16:18:21.451Z,6.03
2018-06-15T16:20:56.192Z,5.90
2018-06-15T16:23:31.681Z,5.77
2018-06-15T16:26:06.817Z,6.10
2018-06-15T16:28:41.582Z,6.53
2018-06-15T16:31:16.564Z,7.17
2018-06-15T16:33:51.698Z,6.43
2018-06-15T16:36:27.028Z,6.70
2018-06-15T16:39:01.396Z,6.20
2018-06-15T16:41:37.457Z,6.60
2018-06-15T16:44:12.025Z,7.93
2018-06-15T16:46:47.077Z,6.40
2018-06-15T16:49:21.649Z,6.63
2018-06-15T16:51:56.498Z,6.50
2018-06-15T16:54:31.664Z,6.33
2018-06-15T16:57:07.048Z,7.83
2018-06-15T16:59:42.093Z,7.03
2018-06-15T17:02:17.350Z,8.23
2018-06-15T17:04:52.097Z,7.30
2018-06-15T17:07:27.657Z,7.50
2018-06-15T17:10:02.178Z,8.10
2018-06-15T17:12:37.001Z,7.60
2018-06-15T17:15:11.674Z,7.47
2018-06-15T17:17:46.281Z,7.40
2018-06-15T17:20:21.436Z,6.97
2018-06-15T17:22:56.494Z,7.90
2018-06-15T17:25:31.532Z,8.13
2018-06-15T17:28:06.721Z,7.80
2018-06-15T17:30:41.765Z,6.43
2018-06-15T17:33:16.696Z,6.20
2018-06-15T17:35:51.729Z,7.17
2018-06-15T17:38:26.957Z,6.60
2018-06-15T17:41:01.615Z,6.80
2018-06-15T17:43:36.789Z,7.23
2018-06-15T17:46:12.081Z,7.30
2018-06-15T17:48:48.004Z,7.17
2018-06-15T17:51:23.081Z,6.50
2018-06-15T17:53:57.544Z,6.47
2018-06-15T17:59:28.777Z,6.13
2018-06-15T18:02:03.804Z,6.60
2018-06-15T18:04:38.590Z,7.00
2018-06-15T18:07:14.293Z,6.77
2018-06-15T18:09:49.500Z,6.33
2018-06-15T18:12:24.011Z,6.40
2018-06-15T18:14:58.725Z,6.67
2018-06-15T18:17:33.824Z,7.40
2018-06-15T18:20:08.433Z,6.63
2018-06-15T18:22:43.068Z,6.00
2018-06-15T18:25:17.763Z,8.20
2018-06-15T18:30:32.129Z,9.43
2018-06-15T18:33:07.560Z,9.07
2018-06-15T18:35:42.174Z,9.20
2018-06-15T18:38:17.052Z,9.20
2018-06-15T18:40:51.902Z,9.30
2018-06-15T18:43:26.294Z,7.50
2018-06-15T18:46:01.477Z,10.20
2018-06-15T18:48:36.923Z,9.10
2018-06-15T18:51:11.498Z,8.13
2018-06-15T18:53:46.236Z,8.70
2018-06-15T18:56:21.942Z,7.30
2018-06-15T18:58:56.612Z,7.50
2018-06-15T19:01:31.640Z,7.77
2018-06-15T19:04:06.944Z,7.73
2018-06-15T19:06:42.221Z,8.17
2018-06-15T19:09:17.369Z,9.00
2018-06-15T19:11:52.244Z,7.20
2018-06-15T19:14:27.040Z,7.63
2018-06-15T19:17:01.562Z,8.10
2018-06-15T19:19:36.428Z,7.50
2018-06-15T19:22:11.649Z,8.03
2018-06-15T19:24:46.180Z,7.27
2018-06-15T19:27:21.208Z,7.70
2018-06-15T19:29:56.096Z,7.47
2018-06-15T19:32:31.067Z,7.40
2018-06-15T19:35:06.221Z,8.30
2018-06-15T19:37:40.910Z,8.47
2018-06-15T19:40:16.008Z,7.90
2018-06-15T19:42:50.913Z,9.00
2018-06-15T19:45:25.561Z,8.80
2018-06-15T19:48:00.740Z,8.50
2018-06-15T19:50:35.848Z,9.10
2018-06-15T19:53:10.352Z,9.20
2018-06-15T19:55:45.398Z,9.73
2018-06-15T19:58:19.828Z,9.47
2018-06-15T20:00:54.606Z,10.00
2018-06-15T20:03:29.760Z,10.53
2018-06-15T20:06:04.697Z,10.87
2018-06-15T20:08:39.531Z,10.20
2018-06-15T20:11:14.484Z,10.50
2018-06-15T20:13:48.760Z,10.27
2018-06-15T20:16:23.696Z,10.43
2018-06-15T20:18:58.528Z,11.47
2018-06-15T20:21:33.421Z,11.20
2018-06-15T20:24:08.160Z,11.40
2018-06-15T20:26:42.922Z,11.40
2018-06-15T20:29:17.956Z,10.50
2018-06-15T20:31:52.797Z,9.73
2018-06-15T20:34:27.608Z,33.00
2018-06-15T20:37:02.429Z,28.00
2018-06-15T20:39:37.097Z,22.67
2018-06-15T20:42:12.064Z,19.43
2018-06-15T20:44:47.240Z,19.70
2018-06-15T20:47:21.655Z,16.53
2018-06-15T20:49:56.437Z,16.63
2018-06-15T20:52:31.797Z,14.10
2018-06-15T20:55:06.636Z,14.80
2018-06-15T20:57:41.144Z,14.40
2018-06-15T21:00:16.080Z,13.13
2018-06-15T21:02:50.888Z,12.80
2018-06-15T21:05:25.580Z,13.60
2018-06-15T21:08:00.380Z,12.77
2018-06-15T21:10:35.755Z,13.00
2018-06-15T21:13:10.995Z,12.43
2018-06-15T21:15:45.514Z,13.03
2018-06-15T21:18:20.316Z,12.27
2018-06-15T21:20:55.465Z,13.40
2018-06-15T21:23:29.956Z,13.03
2018-06-15T21:26:05.107Z,13.07
2018-06-15T21:28:39.504Z,12.67
2018-06-15T21:31:14.815Z,12.60
2018-06-15T21:33:49.296Z,12.90
2018-06-15T21:36:24.504Z,12.70
2018-06-15T21:38:59.072Z,13.33
2018-06-15T21:41:34.276Z,13.13
2018-06-15T21:44:09.132Z,12.77
2018-06-15T21:46:43.641Z,13.03
2018-06-15T21:49:18.561Z,13.67
2018-06-15T21:51:53.744Z,12.43
2018-06-15T21:54:28.876Z,12.23
2018-06-15T21:57:03.622Z,13.47
2018-06-15T21:59:38.365Z,12.90
2018-06-15T22:02:13.030Z,12.37
2018-06-15T22:04:48.345Z,11.73
2018-06-15T22:07:23.165Z,14.17
2018-06-15T22:09:57.752Z,12.33
2018-06-15T22:12:32.922Z,12.17
2018-06-15T22:15:07.580Z,12.90
2018-06-15T22:17:42.288Z,12.80
2018-06-15T22:20:17.197Z,13.50
2018-06-15T22:22:52.413Z,13.27
2018-06-15T22:25:27.452Z,12.50
2018-06-15T22:28:01.818Z,13.30
2018-06-15T22:30:36.941Z,13.10
2018-06-15T22:33:11.613Z,12.43
2018-06-15T22:35:46.492Z,13.43
2018-06-15T22:38:21.808Z,12.57
2018-06-15T22:40:56.180Z,12.93
2018-06-15T22:43:31.089Z,12.30
2018-06-15T22:46:06.356Z,12.87
2018-06-15T22:48:40.768Z,13.50
2018-06-15T22:51:16.132Z,14.00
2018-06-15T22:53:50.369Z,13.97
2018-06-15T22:56:26.256Z,13.50
2018-06-15T22:59:01.208Z,14.50
2018-06-15T23:01:36.184Z,13.10
2018-06-15T23:04:10.657Z,13.87
2018-06-15T23:06:45.716Z,13.80
2018-06-15T23:09:20.208Z,13.40
2018-06-15T23:11:55.189Z,14.30
2018-06-15T23:14:30.328Z,14.60
2018-06-15T23:17:04.844Z,14.30
2018-06-15T23:19:39.560Z,12.77
2018-06-15T23:22:14.374Z,13.30
2018-06-15T23:24:49.212Z,14.43
2018-06-15T23:27:24.249Z,13.30
2018-06-15T23:29:59.133Z,13.03
2018-06-15T23:32:34.192Z,14.50
2018-06-15T23:35:09.277Z,12.90
2018-06-15T23:37:43.849Z,13.90
2018-06-15T23:40:19.251Z,13.23
2018-06-15T23:42:53.729Z,13.00
2018-06-15T23:45:28.928Z,15.40
2018-06-15T23:48:03.517Z,13.53
2018-06-15T23:50:38.696Z,13.50
2018-06-15T23:53:13.390Z,13.50
2018-06-15T23:55:47.952Z,13.43
2018-06-15T23:58:23.120Z,12.97
